sensor_id;sensor_type;location;lat;lon;timestamp;P1;durP1;ratioP1;P2;durP2;ratioP2
71896;SDS011;59767;51.344;12.362;2023-01-29T00:02:53;9.40;;;3.45;;
71896;SDS011;59767;51.344;12.362;2023-01-29T00:05:57;10.32;;;3.80;;
71896;SDS011;59767;51.344;12.362;2023-01-29T00:09:01;11.27;;;3.55;;
71896;SDS011;59767;51.344;12.362;2023-01-29T00:12:05;11.45;;;3.58;;
71896;SDS011;59767;51.344;12.362;2023-01-29T00:15:12;9.88;;;3.53;;
71896;SDS011;59767;51.344;12.362;2023-01-29T00:18:16;8.40;;;3.25;;
71896;SDS011;59767;51.344;12.362;2023-01-29T00:21:20;11.55;;;3.75;;
71896;SDS011;59767;51.344;12.362;2023-01-29T00:24:25;9.77;;;3.67;;
71896;SDS011;59767;51.344;12.362;2023-01-29T00:27:30;9.52;;;3.80;;
71896;SDS011;59767;51.344;12.362;2023-01-29T00:30:34;7.45;;;3.20;;
71896;SDS011;59767;51.344;12.362;2023-01-29T00:33:39;11.35;;;3.70;;
71896;SDS011;59767;51.344;12.362;2023-01-29T00:36:43;8.45;;;3.40;;
71896;SDS011;59767;51.344;12.362;2023-01-29T00:39:48;9.60;;;3.70;;
71896;SDS011;59767;51.344;12.362;2023-01-29T00:42:52;9.40;;;3.85;;
71896;SDS011;59767;51.344;12.362;2023-01-29T00:46:15;8.27;;;3.90;;
71896;SDS011;59767;51.344;12.362;2023-01-29T00:49:19;9.25;;;3.42;;
71896;SDS011;59767;51.344;12.362;2023-01-29T00:52:23;8.38;;;3.53;;
71896;SDS011;59767;51.344;12.362;2023-01-29T00:55:28;9.32;;;3.88;;
71896;SDS011;59767;51.344;12.362;2023-01-29T00:58:32;10.15;;;3.80;;
71896;SDS011;59767;51.344;12.362;2023-01-29T01:01:38;10.20;;;4.20;;
71896;SDS011;59767;51.344;12.362;2023-01-29T01:05:01;9.25;;;3.70;;
71896;SDS011;59767;51.344;12.362;2023-01-29T01:08:05;8.27;;;3.97;;
71896;SDS011;59767;51.344;12.362;2023-01-29T01:11:29;12.23;;;5.03;;
71896;SDS011;59767;51.344;12.362;2023-01-29T01:14:33;11.70;;;4.45;;
71896;SDS011;59767;51.344;12.362;2023-01-29T01:17:40;12.07;;;4.80;;
71896;SDS011;59767;51.344;12.362;2023-01-29T01:20:44;10.48;;;4.63;;
71896;SDS011;59767;51.344;12.362;2023-01-29T01:23:53;10.10;;;4.50;;
71896;SDS011;59767;51.344;12.362;2023-01-29T01:26:57;11.70;;;4.72;;
71896;SDS011;59767;51.344;12.362;2023-01-29T01:30:01;10.43;;;4.85;;
71896;SDS011;59767;51.344;12.362;2023-01-29T01:33:05;9.85;;;4.57;;
71896;SDS011;59767;51.344;12.362;2023-01-29T01:36:09;11.23;;;5.40;;
71896;SDS011;59767;51.344;12.362;2023-01-29T01:39:13;13.18;;;5.70;;
71896;SDS011;59767;51.344;12.362;2023-01-29T01:42:17;14.52;;;5.97;;
71896;SDS011;59767;51.344;12.362;2023-01-29T01:45:24;12.57;;;5.88;;
71896;SDS011;59767;51.344;12.362;2023-01-29T01:48:29;11.77;;;5.70;;
71896;SDS011;59767;51.344;12.362;2023-01-29T01:51:33;12.63;;;5.53;;
71896;SDS011;59767;51.344;12.362;2023-01-29T01:54:40;13.32;;;5.57;;
71896;SDS011;59767;51.344;12.362;2023-01-29T01:57:46;12.88;;;5.75;;
71896;SDS011;59767;51.344;12.362;2023-01-29T02:00:54;14.15;;;6.18;;
71896;SDS011;59767;51.344;12.362;2023-01-29T02:04:00;13.00;;;6.50;;
71896;SDS011;59767;51.344;12.362;2023-01-29T02:07:26;13.40;;;6.57;;
71896;SDS011;59767;51.344;12.362;2023-01-29T02:10:48;17.73;;;6.70;;
71896;SDS011;59767;51.344;12.362;2023-01-29T02:13:53;14.52;;;6.85;;
71896;SDS011;59767;51.344;12.362;2023-01-29T02:17:00;13.85;;;6.82;;
71896;SDS011;59767;51.344;12.362;2023-01-29T02:20:08;14.82;;;6.82;;
71896;SDS011;59767;51.344;12.362;2023-01-29T02:26:58;15.38;;;6.95;;
71896;SDS011;59767;51.344;12.362;2023-01-29T02:30:08;19.23;;;7.15;;
71896;SDS011;59767;51.344;12.362;2023-01-29T02:33:37;14.38;;;7.53;;
71896;SDS011;59767;51.344;12.362;2023-01-29T02:36:49;16.77;;;7.63;;
71896;SDS011;59767;51.344;12.362;2023-01-29T02:40:20;12.23;;;7.00;;
71896;SDS011;59767;51.344;12.362;2023-01-29T02:46:59;15.50;;;7.40;;
71896;SDS011;59767;51.344;12.362;2023-01-29T02:53:39;17.50;;;8.30;;
71896;SDS011;59767;51.344;12.362;2023-01-29T02:57:09;12.98;;;7.25;;
71896;SDS011;59767;51.344;12.362;2023-01-29T03:00:23;15.70;;;7.80;;
71896;SDS011;59767;51.344;12.362;2023-01-29T03:03:32;13.95;;;7.82;;
71896;SDS011;59767;51.344;12.362;2023-01-29T03:06:40;14.93;;;7.60;;
71896;SDS011;59767;51.344;12.362;2023-01-29T03:09:48;15.52;;;8.02;;
71896;SDS011;59767;51.344;12.362;2023-01-29T03:13:01;15.10;;;7.93;;
71896;SDS011;59767;51.344;12.362;2023-01-29T03:16:13;16.85;;;8.15;;
71896;SDS011;59767;51.344;12.362;2023-01-29T03:19:30;15.60;;;8.32;;
71896;SDS011;59767;51.344;12.362;2023-01-29T03:22:39;16.90;;;8.73;;
71896;SDS011;59767;51.344;12.362;2023-01-29T03:25:48;18.85;;;9.20;;
71896;SDS011;59767;51.344;12.362;2023-01-29T03:29:14;19.55;;;9.63;;
71896;SDS011;59767;51.344;12.362;2023-01-29T03:32:37;16.33;;;8.98;;
71896;SDS011;59767;51.344;12.362;2023-01-29T03:35:43;19.08;;;9.60;;
71896;SDS011;59767;51.344;12.362;2023-01-29T03:38:52;19.05;;;9.43;;
71896;SDS011;59767;51.344;12.362;2023-01-29T03:45:26;17.35;;;9.30;;
71896;SDS011;59767;51.344;12.362;2023-01-29T03:48:35;18.35;;;9.40;;
71896;SDS011;59767;51.344;12.362;2023-01-29T03:51:48;16.90;;;9.25;;
71896;SDS011;59767;51.344;12.362;2023-01-29T03:58:23;16.45;;;8.98;;
71896;SDS011;59767;51.344;12.362;2023-01-29T04:01:43;17.55;;;9.55;;
71896;SDS011;59767;51.344;12.362;2023-01-29T04:04:52;19.60;;;9.55;;
71896;SDS011;59767;51.344;12.362;2023-01-29T04:08:06;19.95;;;9.40;;
71896;SDS011;59767;51.344;12.362;2023-01-29T04:11:15;16.80;;;9.50;;
71896;SDS011;59767;51.344;12.362;2023-01-29T04:14:23;17.00;;;9.40;;
71896;SDS011;59767;51.344;12.362;2023-01-29T04:17:30;19.30;;;9.05;;
71896;SDS011;59767;51.344;12.362;2023-01-29T04:20:40;19.20;;;9.32;;
71896;SDS011;59767;51.344;12.362;2023-01-29T04:23:45;16.42;;;9.32;;
71896;SDS011;59767;51.344;12.362;2023-01-29T04:26:57;18.92;;;9.65;;
71896;SDS011;59767;51.344;12.362;2023-01-29T04:30:16;17.50;;;9.48;;
71896;SDS011;59767;51.344;12.362;2023-01-29T04:37:15;19.80;;;9.35;;
71896;SDS011;59767;51.344;12.362;2023-01-29T04:40:42;18.27;;;9.65;;
71896;SDS011;59767;51.344;12.362;2023-01-29T04:51:07;18.75;;;9.50;;
71896;SDS011;59767;51.344;12.362;2023-01-29T05:01:31;16.52;;;9.05;;
71896;SDS011;59767;51.344;12.362;2023-01-29T05:04:38;17.35;;;9.43;;
71896;SDS011;59767;51.344;12.362;2023-01-29T05:07:44;22.30;;;9.95;;
71896;SDS011;59767;51.344;12.362;2023-01-29T05:10:50;19.58;;;9.18;;
71896;SDS011;59767;51.344;12.362;2023-01-29T05:13:56;16.90;;;9.30;;
71896;SDS011;59767;51.344;12.362;2023-01-29T05:17:03;18.13;;;9.55;;
71896;SDS011;59767;51.344;12.362;2023-01-29T05:20:12;16.65;;;8.88;;
71896;SDS011;59767;51.344;12.362;2023-01-29T05:23:17;15.80;;;8.90;;
71896;SDS011;59767;51.344;12.362;2023-01-29T05:26:25;19.33;;;9.10;;
71896;SDS011;59767;51.344;12.362;2023-01-29T05:29:49;16.52;;;8.98;;
71896;SDS011;59767;51.344;12.362;2023-01-29T05:32:53;16.23;;;8.48;;
71896;SDS011;59767;51.344;12.362;2023-01-29T05:35:57;15.93;;;8.52;;
71896;SDS011;59767;51.344;12.362;2023-01-29T05:39:02;18.05;;;8.85;;
71896;SDS011;59767;51.344;12.362;2023-01-29T05:42:07;21.33;;;9.50;;
71896;SDS011;59767;51.344;12.362;2023-01-29T05:45:10;19.67;;;9.82;;
71896;SDS011;59767;51.344;12.362;2023-01-29T05:48:14;16.55;;;8.90;;
71896;SDS011;59767;51.344;12.362;2023-01-29T05:51:19;17.63;;;8.68;;
71896;SDS011;59767;51.344;12.362;2023-01-29T05:54:23;16.08;;;8.93;;
71896;SDS011;59767;51.344;12.362;2023-01-29T05:57:27;17.83;;;8.85;;
71896;SDS011;59767;51.344;12.362;2023-01-29T06:00:31;14.85;;;8.65;;
71896;SDS011;59767;51.344;12.362;2023-01-29T06:03:35;17.30;;;9.02;;
71896;SDS011;59767;51.344;12.362;2023-01-29T06:06:39;18.45;;;8.23;;
71896;SDS011;59767;51.344;12.362;2023-01-29T06:09:43;16.48;;;9.10;;
71896;SDS011;59767;51.344;12.362;2023-01-29T06:12:47;17.08;;;9.20;;
71896;SDS011;59767;51.344;12.362;2023-01-29T06:15:51;15.48;;;8.48;;
71896;SDS011;59767;51.344;12.362;2023-01-29T06:18:56;15.90;;;8.43;;
71896;SDS011;59767;51.344;12.362;2023-01-29T06:22:00;18.45;;;9.55;;
71896;SDS011;59767;51.344;12.362;2023-01-29T06:25:04;16.52;;;8.85;;
71896;SDS011;59767;51.344;12.362;2023-01-29T06:28:09;16.77;;;9.05;;
71896;SDS011;59767;51.344;12.362;2023-01-29T06:31:13;17.25;;;9.32;;
71896;SDS011;59767;51.344;12.362;2023-01-29T06:34:37;15.23;;;8.77;;
71896;SDS011;59767;51.344;12.362;2023-01-29T06:37:41;16.17;;;8.95;;
71896;SDS011;59767;51.344;12.362;2023-01-29T06:40:45;16.55;;;8.75;;
71896;SDS011;59767;51.344;12.362;2023-01-29T06:43:49;17.38;;;8.88;;
71896;SDS011;59767;51.344;12.362;2023-01-29T06:46:54;19.10;;;9.18;;
71896;SDS011;59767;51.344;12.362;2023-01-29T06:49:58;17.77;;;9.30;;
71896;SDS011;59767;51.344;12.362;2023-01-29T06:53:03;16.90;;;9.25;;
71896;SDS011;59767;51.344;12.362;2023-01-29T06:56:07;17.10;;;9.48;;
71896;SDS011;59767;51.344;12.362;2023-01-29T06:59:11;18.27;;;9.48;;
71896;SDS011;59767;51.344;12.362;2023-01-29T07:02:15;20.05;;;10.05;;
71896;SDS011;59767;51.344;12.362;2023-01-29T07:05:19;21.73;;;10.05;;
71896;SDS011;59767;51.344;12.362;2023-01-29T07:08:24;19.38;;;9.77;;
71896;SDS011;59767;51.344;12.362;2023-01-29T07:11:28;20.05;;;10.48;;
71896;SDS011;59767;51.344;12.362;2023-01-29T07:14:32;15.85;;;9.18;;
71896;SDS011;59767;51.344;12.362;2023-01-29T07:17:36;19.30;;;9.98;;
71896;SDS011;59767;51.344;12.362;2023-01-29T07:20:41;21.67;;;10.15;;
71896;SDS011;59767;51.344;12.362;2023-01-29T07:23:46;16.13;;;10.05;;
71896;SDS011;59767;51.344;12.362;2023-01-29T07:26:50;22.88;;;12.30;;
71896;SDS011;59767;51.344;12.362;2023-01-29T07:29:54;18.80;;;10.93;;
71896;SDS011;59767;51.344;12.362;2023-01-29T07:33:02;20.25;;;10.90;;
71896;SDS011;59767;51.344;12.362;2023-01-29T07:36:10;23.20;;;11.18;;
71896;SDS011;59767;51.344;12.362;2023-01-29T07:39:15;22.83;;;12.20;;
71896;SDS011;59767;51.344;12.362;2023-01-29T07:42:19;20.15;;;11.80;;
71896;SDS011;59767;51.344;12.362;2023-01-29T07:45:23;17.90;;;9.98;;
71896;SDS011;59767;51.344;12.362;2023-01-29T07:48:28;20.00;;;11.32;;
71896;SDS011;59767;51.344;12.362;2023-01-29T07:51:32;20.70;;;10.85;;
71896;SDS011;59767;51.344;12.362;2023-01-29T07:54:36;18.77;;;10.48;;
71896;SDS011;59767;51.344;12.362;2023-01-29T07:57:40;21.35;;;10.80;;
71896;SDS011;59767;51.344;12.362;2023-01-29T08:00:44;20.92;;;10.85;;
71896;SDS011;59767;51.344;12.362;2023-01-29T08:03:49;18.83;;;10.70;;
71896;SDS011;59767;51.344;12.362;2023-01-29T08:06:54;20.98;;;10.90;;
71896;SDS011;59767;51.344;12.362;2023-01-29T08:09:58;19.83;;;11.15;;
71896;SDS011;59767;51.344;12.362;2023-01-29T08:13:03;19.35;;;11.15;;
71896;SDS011;59767;51.344;12.362;2023-01-29T08:16:08;17.52;;;10.48;;
71896;SDS011;59767;51.344;12.362;2023-01-29T08:19:12;20.52;;;11.15;;
71896;SDS011;59767;51.344;12.362;2023-01-29T08:22:16;18.95;;;11.05;;
71896;SDS011;59767;51.344;12.362;2023-01-29T08:25:20;22.10;;;11.25;;
71896;SDS011;59767;51.344;12.362;2023-01-29T08:28:25;21.75;;;11.07;;
71896;SDS011;59767;51.344;12.362;2023-01-29T08:31:30;21.13;;;11.27;;
71896;SDS011;59767;51.344;12.362;2023-01-29T08:34:33;17.90;;;10.48;;
71896;SDS011;59767;51.344;12.362;2023-01-29T08:37:38;21.15;;;10.93;;
71896;SDS011;59767;51.344;12.362;2023-01-29T08:40:42;22.30;;;10.98;;
71896;SDS011;59767;51.344;12.362;2023-01-29T08:43:46;25.48;;;12.55;;
71896;SDS011;59767;51.344;12.362;2023-01-29T08:46:51;26.83;;;13.25;;
71896;SDS011;59767;51.344;12.362;2023-01-29T08:49:55;22.27;;;12.52;;
71896;SDS011;59767;51.344;12.362;2023-01-29T08:53:00;23.83;;;13.82;;
71896;SDS011;59767;51.344;12.362;2023-01-29T08:56:06;24.05;;;13.10;;
71896;SDS011;59767;51.344;12.362;2023-01-29T08:59:10;22.77;;;13.32;;
71896;SDS011;59767;51.344;12.362;2023-01-29T09:02:14;26.83;;;13.93;;
71896;SDS011;59767;51.344;12.362;2023-01-29T09:05:18;25.02;;;13.50;;
71896;SDS011;59767;51.344;12.362;2023-01-29T09:08:23;22.23;;;13.13;;
71896;SDS011;59767;51.344;12.362;2023-01-29T09:11:27;24.77;;;13.65;;
71896;SDS011;59767;51.344;12.362;2023-01-29T09:14:31;24.77;;;13.77;;
71896;SDS011;59767;51.344;12.362;2023-01-29T09:17:35;25.23;;;13.52;;
71896;SDS011;59767;51.344;12.362;2023-01-29T09:20:39;22.73;;;12.60;;
71896;SDS011;59767;51.344;12.362;2023-01-29T09:23:43;23.80;;;13.93;;
71896;SDS011;59767;51.344;12.362;2023-01-29T09:26:48;24.40;;;13.45;;
71896;SDS011;59767;51.344;12.362;2023-01-29T09:29:52;23.10;;;13.48;;
71896;SDS011;59767;51.344;12.362;2023-01-29T09:32:56;22.08;;;11.82;;
71896;SDS011;59767;51.344;12.362;2023-01-29T09:36:01;23.90;;;13.65;;
71896;SDS011;59767;51.344;12.362;2023-01-29T09:39:05;24.23;;;13.30;;
71896;SDS011;59767;51.344;12.362;2023-01-29T09:45:59;23.15;;;12.93;;
71896;SDS011;59767;51.344;12.362;2023-01-29T09:49:13;23.63;;;13.10;;
71896;SDS011;59767;51.344;12.362;2023-01-29T09:55:38;23.98;;;12.98;;
71896;SDS011;59767;51.344;12.362;2023-01-29T09:58:46;23.70;;;12.52;;
71896;SDS011;59767;51.344;12.362;2023-01-29T10:05:33;23.15;;;13.10;;
71896;SDS011;59767;51.344;12.362;2023-01-29T10:19:15;22.95;;;12.48;;
71896;SDS011;59767;51.344;12.362;2023-01-29T10:25:53;22.90;;;12.35;;
71896;SDS011;59767;51.344;12.362;2023-01-29T10:28:57;21.20;;;11.77;;
71896;SDS011;59767;51.344;12.362;2023-01-29T10:32:03;22.77;;;12.30;;
71896;SDS011;59767;51.344;12.362;2023-01-29T10:35:14;22.27;;;13.10;;
71896;SDS011;59767;51.344;12.362;2023-01-29T10:45:29;24.30;;;12.80;;
71896;SDS011;59767;51.344;12.362;2023-01-29T10:48:52;21.63;;;12.57;;
71896;SDS011;59767;51.344;12.362;2023-01-29T10:52:07;23.83;;;12.85;;
71896;SDS011;59767;51.344;12.362;2023-01-29T10:58:53;23.20;;;13.27;;
71896;SDS011;59767;51.344;12.362;2023-01-29T11:02:00;24.45;;;13.18;;
71896;SDS011;59767;51.344;12.362;2023-01-29T11:05:11;23.90;;;13.73;;
71896;SDS011;59767;51.344;12.362;2023-01-29T11:09:25;26.33;;;13.82;;
71896;SDS011;59767;51.344;12.362;2023-01-29T11:12:13;25.75;;;13.60;;
71896;SDS011;59767;51.344;12.362;2023-01-29T11:15:23;26.33;;;12.70;;
71896;SDS011;59767;51.344;12.362;2023-01-29T11:22:16;25.08;;;13.27;;
71896;SDS011;59767;51.344;12.362;2023-01-29T11:25:25;20.27;;;12.27;;
71896;SDS011;59767;51.344;12.362;2023-01-29T11:28:40;24.10;;;13.45;;
71896;SDS011;59767;51.344;12.362;2023-01-29T11:31:48;23.48;;;12.80;;
71896;SDS011;59767;51.344;12.362;2023-01-29T11:34:56;22.05;;;12.73;;
71896;SDS011;59767;51.344;12.362;2023-01-29T11:41:19;23.27;;;12.45;;
71896;SDS011;59767;51.344;12.362;2023-01-29T11:47:43;19.98;;;12.32;;
71896;SDS011;59767;51.344;12.362;2023-01-29T11:50:57;24.20;;;12.60;;
71896;SDS011;59767;51.344;12.362;2023-01-29T11:54:10;21.48;;;12.65;;
71896;SDS011;59767;51.344;12.362;2023-01-29T12:00:33;21.42;;;12.32;;
71896;SDS011;59767;51.344;12.362;2023-01-29T12:03:40;23.90;;;11.82;;
71896;SDS011;59767;51.344;12.362;2023-01-29T12:06:48;22.45;;;11.65;;
71896;SDS011;59767;51.344;12.362;2023-01-29T12:09:56;22.98;;;12.25;;
71896;SDS011;59767;51.344;12.362;2023-01-29T12:16:23;21.88;;;11.50;;
71896;SDS011;59767;51.344;12.362;2023-01-29T12:19:47;20.83;;;11.30;;
71896;SDS011;59767;51.344;12.362;2023-01-29T12:23:02;17.13;;;10.25;;
71896;SDS011;59767;51.344;12.362;2023-01-29T12:29:41;20.85;;;10.93;;
71896;SDS011;59767;51.344;12.362;2023-01-29T12:33:28;19.95;;;11.57;;
71896;SDS011;59767;51.344;12.362;2023-01-29T12:36:44;19.77;;;10.85;;
71896;SDS011;59767;51.344;12.362;2023-01-29T12:40:04;25.88;;;11.75;;
71896;SDS011;59767;51.344;12.362;2023-01-29T12:43:15;18.52;;;11.02;;
71896;SDS011;59767;51.344;12.362;2023-01-29T12:46:24;17.73;;;10.55;;
71896;SDS011;59767;51.344;12.362;2023-01-29T12:49:34;20.08;;;11.18;;
71896;SDS011;59767;51.344;12.362;2023-01-29T12:52:43;21.60;;;11.50;;
71896;SDS011;59767;51.344;12.362;2023-01-29T12:56:15;20.52;;;10.95;;
71896;SDS011;59767;51.344;12.362;2023-01-29T12:59:30;19.42;;;10.43;;
71896;SDS011;59767;51.344;12.362;2023-01-29T13:02:46;18.80;;;10.02;;
71896;SDS011;59767;51.344;12.362;2023-01-29T13:06:01;18.83;;;10.30;;
71896;SDS011;59767;51.344;12.362;2023-01-29T13:09:13;22.45;;;10.98;;
71896;SDS011;59767;51.344;12.362;2023-01-29T13:12:24;18.85;;;9.63;;
71896;SDS011;59767;51.344;12.362;2023-01-29T13:15:31;18.90;;;10.00;;
71896;SDS011;59767;51.344;12.362;2023-01-29T13:18:43;20.00;;;10.18;;
71896;SDS011;59767;51.344;12.362;2023-01-29T13:21:50;18.75;;;10.38;;
71896;SDS011;59767;51.344;12.362;2023-01-29T13:24:57;19.55;;;9.25;;
71896;SDS011;59767;51.344;12.362;2023-01-29T13:28:18;16.15;;;9.13;;
71896;SDS011;59767;51.344;12.362;2023-01-29T13:31:30;18.90;;;9.55;;
71896;SDS011;59767;51.344;12.362;2023-01-29T13:34:42;19.98;;;10.20;;
71896;SDS011;59767;51.344;12.362;2023-01-29T13:37:52;18.02;;;9.70;;
71896;SDS011;59767;51.344;12.362;2023-01-29T13:41:01;18.27;;;9.85;;
71896;SDS011;59767;51.344;12.362;2023-01-29T13:44:15;17.73;;;9.55;;
71896;SDS011;59767;51.344;12.362;2023-01-29T13:47:32;17.85;;;9.43;;
71896;SDS011;59767;51.344;12.362;2023-01-29T13:50:40;16.98;;;9.50;;
71896;SDS011;59767;51.344;12.362;2023-01-29T13:53:56;17.08;;;9.38;;
71896;SDS011;59767;51.344;12.362;2023-01-29T13:57:17;17.67;;;9.57;;
71896;SDS011;59767;51.344;12.362;2023-01-29T14:03:43;18.33;;;9.25;;
71896;SDS011;59767;51.344;12.362;2023-01-29T14:07:37;93.90;;;42.88;;
71896;SDS011;59767;51.344;12.362;2023-01-29T14:10:42;34.22;;;16.00;;
71896;SDS011;59767;51.344;12.362;2023-01-29T14:13:47;43.60;;;18.33;;
71896;SDS011;59767;51.344;12.362;2023-01-29T14:16:52;29.58;;;13.35;;
71896;SDS011;59767;51.344;12.362;2023-01-29T14:20:18;39.78;;;16.48;;
71896;SDS011;59767;51.344;12.362;2023-01-29T14:23:46;24.05;;;11.90;;
71896;SDS011;59767;51.344;12.362;2023-01-29T14:26:55;17.60;;;9.73;;
71896;SDS011;59767;51.344;12.362;2023-01-29T14:30:02;22.80;;;9.98;;
71896;SDS011;59767;51.344;12.362;2023-01-29T14:36:38;18.50;;;10.07;;
71896;SDS011;59767;51.344;12.362;2023-01-29T14:49:51;20.30;;;10.00;;
71896;SDS011;59767;51.344;12.362;2023-01-29T14:53:02;18.88;;;10.38;;
71896;SDS011;59767;51.344;12.362;2023-01-29T14:56:32;17.73;;;9.07;;
71896;SDS011;59767;51.344;12.362;2023-01-29T14:59:57;15.88;;;8.75;;
71896;SDS011;59767;51.344;12.362;2023-01-29T15:07:01;16.80;;;9.55;;
71896;SDS011;59767;51.344;12.362;2023-01-29T15:10:14;19.05;;;9.85;;
71896;SDS011;59767;51.344;12.362;2023-01-29T15:13:52;19.88;;;10.05;;
71896;SDS011;59767;51.344;12.362;2023-01-29T15:17:05;16.90;;;9.90;;
71896;SDS011;59767;51.344;12.362;2023-01-29T15:20:25;17.25;;;10.15;;
71896;SDS011;59767;51.344;12.362;2023-01-29T15:23:30;19.80;;;9.95;;
71896;SDS011;59767;51.344;12.362;2023-01-29T15:26:36;20.20;;;10.00;;
71896;SDS011;59767;51.344;12.362;2023-01-29T15:29:40;18.50;;;10.18;;
71896;SDS011;59767;51.344;12.362;2023-01-29T15:32:47;21.88;;;10.23;;
71896;SDS011;59767;51.344;12.362;2023-01-29T15:35:58;17.33;;;9.48;;
71896;SDS011;59767;51.344;12.362;2023-01-29T15:42:15;18.35;;;10.15;;
71896;SDS011;59767;51.344;12.362;2023-01-29T15:45:26;20.42;;;10.27;;
71896;SDS011;59767;51.344;12.362;2023-01-29T15:48:35;20.45;;;10.35;;
71896;SDS011;59767;51.344;12.362;2023-01-29T15:51:43;19.85;;;10.45;;
71896;SDS011;59767;51.344;12.362;2023-01-29T15:54:48;19.58;;;10.57;;
71896;SDS011;59767;51.344;12.362;2023-01-29T15:57:53;23.38;;;10.82;;
71896;SDS011;59767;51.344;12.362;2023-01-29T16:00:58;19.92;;;10.57;;
71896;SDS011;59767;51.344;12.362;2023-01-29T16:04:03;21.80;;;10.18;;
71896;SDS011;59767;51.344;12.362;2023-01-29T16:07:08;21.02;;;10.63;;
71896;SDS011;59767;51.344;12.362;2023-01-29T16:10:20;19.30;;;10.95;;
71896;SDS011;59767;51.344;12.362;2023-01-29T16:13:28;23.02;;;11.15;;
71896;SDS011;59767;51.344;12.362;2023-01-29T16:16:34;21.33;;;11.10;;
71896;SDS011;59767;51.344;12.362;2023-01-29T16:19:38;19.13;;;10.65;;
71896;SDS011;59767;51.344;12.362;2023-01-29T16:22:42;21.40;;;11.00;;
71896;SDS011;59767;51.344;12.362;2023-01-29T16:25:47;19.63;;;10.80;;
71896;SDS011;59767;51.344;12.362;2023-01-29T16:28:52;18.73;;;10.60;;
71896;SDS011;59767;51.344;12.362;2023-01-29T16:31:58;23.90;;;10.98;;
71896;SDS011;59767;51.344;12.362;2023-01-29T16:35:05;21.08;;;10.38;;
71896;SDS011;59767;51.344;12.362;2023-01-29T16:38:18;21.98;;;10.65;;
71896;SDS011;59767;51.344;12.362;2023-01-29T16:41:35;21.88;;;10.05;;
71896;SDS011;59767;51.344;12.362;2023-01-29T16:48:44;18.15;;;10.15;;
71896;SDS011;59767;51.344;12.362;2023-01-29T16:51:35;19.13;;;10.18;;
71896;SDS011;59767;51.344;12.362;2023-01-29T16:54:41;18.02;;;10.25;;
71896;SDS011;59767;51.344;12.362;2023-01-29T16:57:48;20.80;;;10.02;;
71896;SDS011;59767;51.344;12.362;2023-01-29T17:01:04;19.88;;;10.63;;
71896;SDS011;59767;51.344;12.362;2023-01-29T17:04:12;20.30;;;10.00;;
71896;SDS011;59767;51.344;12.362;2023-01-29T17:07:17;21.25;;;11.07;;
71896;SDS011;59767;51.344;12.362;2023-01-29T17:10:26;20.08;;;10.45;;
71896;SDS011;59767;51.344;12.362;2023-01-29T17:13:36;19.83;;;10.43;;
71896;SDS011;59767;51.344;12.362;2023-01-29T17:16:49;20.98;;;10.77;;
71896;SDS011;59767;51.344;12.362;2023-01-29T17:19:56;19.88;;;10.80;;
71896;SDS011;59767;51.344;12.362;2023-01-29T17:23:01;19.20;;;10.35;;
71896;SDS011;59767;51.344;12.362;2023-01-29T17:26:06;20.63;;;10.90;;
71896;SDS011;59767;51.344;12.362;2023-01-29T17:29:16;18.48;;;10.00;;
71896;SDS011;59767;51.344;12.362;2023-01-29T17:32:22;19.15;;;10.68;;
71896;SDS011;59767;51.344;12.362;2023-01-29T17:35:46;27.08;;;11.35;;
71896;SDS011;59767;51.344;12.362;2023-01-29T17:38:51;20.85;;;10.73;;
71896;SDS011;59767;51.344;12.362;2023-01-29T17:41:56;18.92;;;9.73;;
71896;SDS011;59767;51.344;12.362;2023-01-29T17:45:01;18.15;;;10.02;;
71896;SDS011;59767;51.344;12.362;2023-01-29T17:48:17;17.65;;;9.50;;
71896;SDS011;59767;51.344;12.362;2023-01-29T17:51:24;21.55;;;9.95;;
71896;SDS011;59767;51.344;12.362;2023-01-29T17:54:28;18.88;;;9.88;;
71896;SDS011;59767;51.344;12.362;2023-01-29T17:57:32;23.95;;;10.77;;
71896;SDS011;59767;51.344;12.362;2023-01-29T18:00:36;21.60;;;9.68;;
71896;SDS011;59767;51.344;12.362;2023-01-29T18:03:40;18.45;;;9.30;;
71896;SDS011;59767;51.344;12.362;2023-01-29T18:06:46;16.38;;;9.25;;
71896;SDS011;59767;51.344;12.362;2023-01-29T18:09:51;19.40;;;9.68;;
71896;SDS011;59767;51.344;12.362;2023-01-29T18:12:55;17.88;;;9.43;;
71896;SDS011;59767;51.344;12.362;2023-01-29T18:15:59;19.73;;;9.60;;
71896;SDS011;59767;51.344;12.362;2023-01-29T18:22:19;18.77;;;8.90;;
71896;SDS011;59767;51.344;12.362;2023-01-29T18:25:24;18.42;;;9.45;;
71896;SDS011;59767;51.344;12.362;2023-01-29T18:28:28;20.58;;;9.48;;
71896;SDS011;59767;51.344;12.362;2023-01-29T18:31:32;17.75;;;9.38;;
71896;SDS011;59767;51.344;12.362;2023-01-29T18:34:38;18.85;;;8.68;;
71896;SDS011;59767;51.344;12.362;2023-01-29T18:37:44;17.73;;;9.00;;
71896;SDS011;59767;51.344;12.362;2023-01-29T18:40:48;20.27;;;8.75;;
71896;SDS011;59767;51.344;12.362;2023-01-29T18:43:52;18.77;;;8.15;;
71896;SDS011;59767;51.344;12.362;2023-01-29T18:46:57;16.67;;;8.40;;
71896;SDS011;59767;51.344;12.362;2023-01-29T18:50:01;16.08;;;8.07;;
71896;SDS011;59767;51.344;12.362;2023-01-29T18:53:05;18.15;;;8.55;;
71896;SDS011;59767;51.344;12.362;2023-01-29T18:56:12;16.15;;;8.32;;
71896;SDS011;59767;51.344;12.362;2023-01-29T18:59:16;18.02;;;8.43;;
71896;SDS011;59767;51.344;12.362;2023-01-29T19:02:20;17.85;;;8.75;;
71896;SDS011;59767;51.344;12.362;2023-01-29T19:05:24;16.23;;;8.10;;
71896;SDS011;59767;51.344;12.362;2023-01-29T19:08:29;16.48;;;8.40;;
71896;SDS011;59767;51.344;12.362;2023-01-29T19:11:33;17.50;;;8.82;;
71896;SDS011;59767;51.344;12.362;2023-01-29T19:14:37;16.98;;;8.60;;
71896;SDS011;59767;51.344;12.362;2023-01-29T19:17:41;19.55;;;8.57;;
71896;SDS011;59767;51.344;12.362;2023-01-29T19:20:45;17.45;;;8.60;;
71896;SDS011;59767;51.344;12.362;2023-01-29T19:23:49;18.30;;;8.80;;
71896;SDS011;59767;51.344;12.362;2023-01-29T19:26:53;18.20;;;8.57;;
71896;SDS011;59767;51.344;12.362;2023-01-29T19:29:58;21.40;;;9.00;;
71896;SDS011;59767;51.344;12.362;2023-01-29T19:33:02;18.98;;;9.45;;
71896;SDS011;59767;51.344;12.362;2023-01-29T19:36:07;19.02;;;8.90;;
71896;SDS011;59767;51.344;12.362;2023-01-29T19:39:12;17.67;;;9.25;;
71896;SDS011;59767;51.344;12.362;2023-01-29T19:42:17;19.30;;;9.57;;
71896;SDS011;59767;51.344;12.362;2023-01-29T19:45:23;20.63;;;9.77;;
71896;SDS011;59767;51.344;12.362;2023-01-29T19:48:49;21.30;;;10.00;;
71896;SDS011;59767;51.344;12.362;2023-01-29T19:51:53;18.70;;;9.98;;
71896;SDS011;59767;51.344;12.362;2023-01-29T19:55:02;20.95;;;10.07;;
71896;SDS011;59767;51.344;12.362;2023-01-29T19:58:08;21.95;;;10.50;;
71896;SDS011;59767;51.344;12.362;2023-01-29T20:01:14;19.60;;;10.27;;
71896;SDS011;59767;51.344;12.362;2023-01-29T20:04:20;22.05;;;10.57;;
71896;SDS011;59767;51.344;12.362;2023-01-29T20:07:23;20.85;;;10.63;;
71896;SDS011;59767;51.344;12.362;2023-01-29T20:10:28;19.77;;;10.20;;
71896;SDS011;59767;51.344;12.362;2023-01-29T20:13:32;18.40;;;9.88;;
71896;SDS011;59767;51.344;12.362;2023-01-29T20:16:36;19.02;;;10.30;;
71896;SDS011;59767;51.344;12.362;2023-01-29T20:19:42;20.13;;;10.27;;